Time;durP1;ratioP1;P1;durP2;ratioP2;P2;SDS_P1;SDS_P2;PMS_P1;PMS_P2;Temp;Humidity;BMP_temperature;BMP_pressure;BME280_temperature;BME280_humidity;BME280_pressure;Samples;Min_cycle;Max_cycle;Signal;HPM_P1;HPM_P2
2022/06/15 00:01:13;;;;;;;;;;;;;;;-142.75;100.00;77403.03;5029901;28;20349;-69
2022/06/15 00:03:40;;;;;;;;;;;;;;;-142.75;100.00;77422.72;5006385;28;19924;-70
2022/06/15 00:06:16;;;;;;;;;;;;;;;-142.75;100.00;77426.66;5024842;28;19987;-69
2022/06/15 00:08:43;;;;;;;;;;;;;;;-142.75;100.00;77436.50;5011348;28;19925;-70
2022/06/15 00:11:31;;;;;;;;;;;;;;;-142.75;100.00;77432.56;5029235;28;19917;-70
2022/06/15 00:13:58;;;;;;;;;;;;;;;-142.75;100.00;77442.41;5009226;28;20004;-71
2022/06/15 00:16:23;;;;;;;;;;;;;;;-142.75;100.00;77436.50;4992067;28;20008;-70
2022/06/15 00:18:49;;;;;;;;;;;;;;;-142.75;100.00;77436.50;5004681;28;20011;-70
2022/06/15 00:21:15;;;;;;;;;;;;;;;-142.75;100.00;77448.34;5029002;28;19922;-70
2022/06/15 00:23:41;;;;;;;;;;;;;;;-142.75;100.00;77456.22;5011267;28;20466;-71
2022/06/15 00:26:07;;;;;;;;;;;;;;;-142.75;100.00;77448.34;5027429;28;20004;-68
2022/06/15 00:28:32;;;;;;;;;;;;;;;-142.75;100.00;77450.28;5009961;28;19966;-70
2022/06/15 00:30:58;;;;;;;;;;;;;;;-142.75;100.00;77448.34;5028639;28;19917;-70
2022/06/15 00:33:24;;;;;;;;;;;;;;;-142.75;100.00;77454.25;5026301;28;19921;-70
2022/06/15 00:35:59;;;;;;;;;;;;;;;-142.75;100.00;77456.22;4991815;28;19925;-71
2022/06/15 00:38:24;;;;;;;;;;;;;;;-142.75;100.00;77450.28;5013274;28;19917;-69
2022/06/15 00:40:49;;;;;;;;;;;;;;;-142.75;100.00;77456.22;5023540;28;20015;-69
2022/06/15 00:43:27;;;;;;;;;;;;;;;-142.75;100.00;77468.03;5027547;28;20011;-69
2022/06/15 00:45:53;;;;;;;;;;;;;;;-142.75;100.00;77471.97;5011212;28;19925;-71
2022/06/15 00:48:18;;;;;;;;;;;;;;;-142.75;100.00;77479.84;5012319;28;20005;-70
2022/06/15 00:50:43;;;;;;;;;;;;;;;-142.75;100.00;77477.88;5009092;28;19918;-69
2022/06/15 00:53:08;;;;;;;;;;;;;;;-142.75;100.00;77479.84;5009843;28;19921;-70
2022/06/15 00:55:34;;;;;;;;;;;;;;;-142.75;100.00;77471.97;5032802;28;20317;-70
2022/06/15 00:58:05;;;;;;;;;;;;;;;-142.75;100.00;77485.75;5026982;28;19917;-71
2022/06/15 01:00:30;;;;;;;;;;;;;;;-142.75;100.00;77491.66;5001691;28;19972;-71
2022/06/15 01:02:56;;;;;;;;;;;;;;;-142.75;100.00;77493.63;5024133;28;19921;-70
2022/06/15 01:05:44;;;;;;;;;;;;;;;-142.75;100.00;77485.75;5015413;28;19922;-70
2022/06/15 01:08:19;;;;;;;;;;;;;;;-142.75;100.00;77487.72;5019501;28;19917;-69
2022/06/15 01:10:51;;;;;;;;;;;;;;;-142.75;100.00;77499.53;5023057;28;19960;-69
2022/06/15 01:13:26;;;;;;;;;;;;;;;-142.75;100.00;77491.66;5004208;28;20031;-69
2022/06/15 01:15:55;;;;;;;;;;;;;;;-142.75;100.00;77493.63;5020026;28;19968;-70
2022/06/15 01:18:31;;;;;;;;;;;;;;;-142.75;100.00;77489.69;5015289;28;19917;-71
2022/06/15 01:21:03;;;;;;;;;;;;;;;-142.75;100.00;77491.66;5019860;28;19917;-69
2022/06/15 01:23:28;;;;;;;;;;;;;;;-142.75;100.00;77485.75;5016277;28;20422;-70
2022/06/15 01:26:12;;;;;;;;;;;;;;;-142.75;100.00;77485.75;5013194;28;20012;-71
2022/06/15 01:28:37;;;;;;;;;;;;;;;-142.75;100.00;77487.72;5031913;28;20000;-70
2022/06/15 01:31:02;;;;;;;;;;;;;;;-142.75;100.00;77489.69;5025937;28;19968;-71
2022/06/15 01:33:35;;;;;;;;;;;;;;;-142.75;100.00;77495.59;5007104;28;20318;-70
2022/06/15 01:36:05;;;;;;;;;;;;;;;-142.75;100.00;77491.66;5003281;28;19917;-69
2022/06/15 01:38:34;;;;;;;;;;;;;;;-142.75;100.00;77493.63;5021601;28;19956;-71
2022/06/15 01:41:02;;;;;;;;;;;;;;;-142.75;100.00;77495.59;5016738;28;19918;-69
2022/06/15 01:43:30;;;;;;;;;;;;;;;-142.75;100.00;77499.53;5030050;28;20353;-70
2022/06/15 01:45:56;;;;;;;;;;;;;;;-142.75;100.00;77495.59;5031717;28;19924;-68
2022/06/15 01:48:22;;;;;;;;;;;;;;;-142.75;100.00;77495.59;5031270;28;19924;-70
2022/06/15 01:50:58;;;;;;;;;;;;;;;-142.75;100.00;77499.53;5031792;28;19917;-70
2022/06/15 01:53:33;;;;;;;;;;;;;;;-142.75;100.00;77491.66;5031460;28;20462;-70
2022/06/15 01:56:08;;;;;;;;;;;;;;;-142.75;100.00;77499.53;5031629;28;19917;-70
2022/06/15 01:58:35;;;;;;;;;;;;;;;-142.75;100.00;77491.66;5024253;28;19925;-70
2022/06/15 02:01:20;;;;;;;;;;;;;;;-142.75;100.00;77487.72;5018961;28;20489;-69
2022/06/15 02:04:06;;;;;;;;;;;;;;;-142.75;100.00;77485.75;5019618;28;19917;-70
2022/06/15 02:06:36;;;;;;;;;;;;;;;-142.75;100.00;77487.72;5023281;28;19924;-70
2022/06/15 02:09:36;;;;;;;;;;;;;;;-142.75;100.00;77485.75;5003446;28;19917;-69
2022/06/15 02:12:04;;;;;;;;;;;;;;;-142.75;100.00;77493.63;4940206;29;19923;-70
2022/06/15 02:14:35;;;;;;;;;;;;;;;-142.75;100.00;77501.50;4998487;28;19918;-70
2022/06/15 02:17:07;;;;;;;;;;;;;;;-142.75;100.00;77499.53;5011864;28;19932;-70
2022/06/15 02:19:35;;;;;;;;;;;;;;;-142.75;100.00;77507.41;5007188;28;19917;-71
2022/06/15 02:22:04;;;;;;;;;;;;;;;-142.75;100.00;77515.28;5015683;28;19924;-69
2022/06/15 02:24:30;;;;;;;;;;;;;;;-142.75;100.00;77525.13;5011492;28;19917;-70
2022/06/15 02:26:56;;;;;;;;;;;;;;;-142.75;100.00;77515.28;5011432;28;19917;-71
2022/06/15 02:29:23;;;;;;;;;;;;;;;-142.75;100.00;77513.31;5011558;28;19989;-71
2022/06/15 02:31:48;;;;;;;;;;;;;;;-142.75;100.00;77519.22;5011488;28;19926;-70
2022/06/15 02:34:14;;;;;;;;;;;;;;;-142.75;100.00;77523.16;5011213;28;20012;-71
2022/06/15 02:36:39;;;;;;;;;;;;;;;-142.75;100.00;77523.16;5011605;28;19941;-71
2022/06/15 02:39:05;;;;;;;;;;;;;;;-142.75;100.00;77527.09;5010716;28;19924;-69
2022/06/15 02:41:31;;;;;;;;;;;;;;;-142.75;100.00;77533.00;5011200;28;19924;-70
2022/06/15 02:43:57;;;;;;;;;;;;;;;-142.75;100.00;77527.09;5011034;28;19918;-71
2022/06/15 02:46:24;;;;;;;;;;;;;;;-142.75;100.00;77531.03;4993490;28;19924;-72
2022/06/15 02:48:50;;;;;;;;;;;;;;;-142.75;100.00;77533.00;5010531;28;19924;-70
2022/06/15 02:51:26;;;;;;;;;;;;;;;-142.75;100.00;77525.13;5010893;28;19919;-70
2022/06/15 02:53:53;;;;;;;;;;;;;;;-142.75;100.00;77529.06;5003702;28;19986;-71
2022/06/15 02:56:20;;;;;;;;;;;;;;;-142.75;100.00;77519.22;5030486;28;19917;-70
2022/06/15 02:58:47;;;;;;;;;;;;;;;-142.75;100.00;77515.28;5009202;28;19917;-69
2022/06/15 03:01:13;;;;;;;;;;;;;;;-142.75;100.00;77525.13;4994048;28;20573;-70
2022/06/15 03:03:39;;;;;;;;;;;;;;;-142.75;100.00;77525.13;5010681;28;19917;-70
2022/06/15 03:06:08;;;;;;;;;;;;;;;-142.75;100.00;77515.28;5010641;28;20350;-69
2022/06/15 03:08:34;;;;;;;;;;;;;;;-142.75;100.00;77527.09;5010388;28;20379;-70
2022/06/15 03:10:59;;;;;;;;;;;;;;;-142.75;100.00;77525.13;5010625;28;19997;-70
2022/06/15 03:13:26;;;;;;;;;;;;;;;-142.75;100.00;77527.09;5010480;28;19930;-70
2022/06/15 03:15:56;;;;;;;;;;;;;;;-142.75;100.00;77534.97;4992824;28;20016;-70
2022/06/15 03:18:22;;;;;;;;;;;;;;;-142.75;100.00;77534.97;4991745;28;19925;-71
2022/06/15 03:20:48;;;;;;;;;;;;;;;-142.75;100.00;77523.16;5010469;28;19917;-69
2022/06/15 03:23:13;;;;;;;;;;;;;;;-142.75;100.00;77519.22;4992723;28;19982;-70
2022/06/15 03:25:38;;;;;;;;;;;;;;;-142.75;100.00;77519.22;5010416;28;20338;-70
2022/06/15 03:28:04;;;;;;;;;;;;;;;-142.75;100.00;77527.09;4992536;28;19965;-71
2022/06/15 03:30:30;;;;;;;;;;;;;;;-142.75;100.00;77534.97;5011142;28;19936;-71
2022/06/15 03:32:55;;;;;;;;;;;;;;;-142.75;100.00;77533.00;5010102;28;19921;-70
2022/06/15 03:35:20;;;;;;;;;;;;;;;-142.75;100.00;77536.94;5010236;28;20303;-70
2022/06/15 03:37:45;;;;;;;;;;;;;;;-142.75;100.00;77534.97;5010014;28;19980;-70
2022/06/15 03:40:11;;;;;;;;;;;;;;;-142.75;100.00;77527.09;5009973;28;19929;-71
2022/06/15 03:42:36;;;;;;;;;;;;;;;-142.75;100.00;77533.00;5010021;28;19918;-71
2022/06/15 03:45:02;;;;;;;;;;;;;;;-142.75;100.00;77534.97;5010035;28;20347;-71
2022/06/15 03:47:27;;;;;;;;;;;;;;;-142.75;100.00;77534.97;5014391;28;19947;-69
2022/06/15 03:49:53;;;;;;;;;;;;;;;-142.75;100.00;77531.03;5030375;28;19917;-70
2022/06/15 03:52:19;;;;;;;;;;;;;;;-142.75;100.00;77534.97;5022616;28;19921;-70
2022/06/15 03:54:45;;;;;;;;;;;;;;;-142.75;100.00;77542.84;5028154;28;19963;-70
2022/06/15 03:57:14;;;;;;;;;;;;;;;-142.75;100.00;77529.06;5028285;28;19925;-70
2022/06/15 03:59:40;;;;;;;;;;;;;;;-142.75;100.00;77538.91;5000159;28;19917;-70
2022/06/15 04:02:06;;;;;;;;;;;;;;;-142.75;100.00;77536.94;4999580;28;20401;-70
2022/06/15 04:04:31;;;;;;;;;;;;;;;-142.75;100.00;77540.88;5013906;28;19921;-68
2022/06/15 04:06:56;;;;;;;;;;;;;;;-142.75;100.00;77533.00;5015285;28;20399;-69
2022/06/15 04:09:22;;;;;;;;;;;;;;;-142.75;100.00;77534.97;5015080;28;19921;-70
2022/06/15 04:12:01;;;;;;;;;;;;;;;-142.75;100.00;77538.91;5009541;28;19921;-70
2022/06/15 04:14:27;;;;;;;;;;;;;;;-142.75;100.00;77533.00;5009454;28;19971;-69
2022/06/15 04:16:56;;;;;;;;;;;;;;;-142.75;100.00;77533.00;5009639;28;19917;-69
2022/06/15 04:19:22;;;;;;;;;;;;;;;-142.75;100.00;77533.00;4991780;28;20288;-71
2022/06/15 04:21:47;;;;;;;;;;;;;;;-142.75;100.00;77525.13;5013521;28;19925;-69
2022/06/15 04:24:14;;;;;;;;;;;;;;;-142.75;100.00;77511.34;5012318;28;19925;-69
2022/06/15 04:26:39;;;;;;;;;;;;;;;-142.75;100.00;77507.41;5009344;28;19917;-70
2022/06/15 04:29:05;;;;;;;;;;;;;;;-142.75;100.00;77505.44;5021998;28;19928;-69
2022/06/15 04:31:30;;;;;;;;;;;;;;;-142.75;100.00;77499.53;5008544;28;20449;-71
2022/06/15 04:33:55;;;;;;;;;;;;;;;-142.75;100.00;77489.69;5013288;28;19917;-69
2022/06/15 04:36:22;;;;;;;;;;;;;;;-142.75;100.00;77487.72;5013546;28;19917;-70
2022/06/15 04:38:47;;;;;;;;;;;;;;;-142.75;100.00;77481.81;5019518;28;19917;-71
2022/06/15 04:41:13;;;;;;;;;;;;;;;-142.75;100.00;77471.97;5015263;28;20380;-70
2022/06/15 04:43:38;;;;;;;;;;;;;;;-142.75;100.00;77462.13;5017801;28;20335;-69
2022/06/15 04:46:03;;;;;;;;;;;;;;;-142.75;100.00;77452.25;5017529;28;20371;-70
2022/06/15 04:48:28;;;;;;;;;;;;;;;-142.75;100.00;77444.38;5024402;28;19917;-70
2022/06/15 04:50:55;;;;;;;;;;;;;;;-142.75;100.00;77448.34;5011984;28;19924;-70
2022/06/15 04:53:20;;;;;;;;;;;;;;;-142.75;100.00;77432.56;5022052;28;19921;-70
2022/06/15 04:55:45;;;;;;;;;;;;;;;-142.75;100.00;77416.81;5032684;28;19971;-70
2022/06/15 04:58:10;;;;;;;;;;;;;;;-142.75;100.00;77412.88;5032280;28;20012;-70
2022/06/15 05:00:36;;;;;;;;;;;;;;;-142.75;100.00;77408.94;5015738;28;20332;-69
2022/06/15 05:03:02;;;;;;;;;;;;;;;-142.75;100.00;77405.00;5032596;28;19921;-70
2022/06/15 05:05:28;;;;;;;;;;;;;;;-142.75;100.00;77391.22;5014045;28;19917;-72
2022/06/15 05:07:53;;;;;;;;;;;;;;;-142.75;100.00;77385.31;5012652;28;19949;-69
2022/06/15 05:10:21;;;;;;;;;;;;;;;-142.75;100.00;77369.56;5018330;28;19929;-70
2022/06/15 05:12:46;;;;;;;;;;;;;;;-142.75;100.00;77349.88;5024049;28;19921;-70
2022/06/15 05:15:13;;;;;;;;;;;;;;;-142.75;100.00;77338.06;5032701;28;20008;-71
2022/06/15 05:17:38;;;;;;;;;;;;;;;-142.75;100.00;77316.41;5030052;28;19924;-70
2022/06/15 05:20:03;;;;;;;;;;;;;;;-142.75;100.00;77306.56;5018097;28;19925;-70
2022/06/15 05:22:29;;;;;;;;;;;;;;;-142.75;100.00;77286.88;5016577;28;20449;-69
2022/06/15 05:24:54;;;;;;;;;;;;;;;-142.75;100.00;77261.28;5023699;28;19948;-69
2022/06/15 05:27:19;;;;;;;;;;;;;;;-142.75;100.00;77251.44;4999029;28;20059;-70
2022/06/15 05:29:44;;;;;;;;;;;;;;;-142.75;100.00;77241.59;5023237;28;19963;-70
2022/06/15 05:32:10;;;;;;;;;;;;;;;-142.75;100.00;77223.88;5014915;28;19944;-70
2022/06/15 05:34:35;;;;;;;;;;;;;;;-142.75;100.00;77200.25;5032066;28;19925;-70
2022/06/15 05:37:00;;;;;;;;;;;;;;;-142.75;100.00;77194.34;5031864;28;19917;-69
2022/06/15 05:39:26;;;;;;;;;;;;;;;-142.75;100.00;77184.50;5007977;28;19924;-70
2022/06/15 05:41:51;;;;;;;;;;;;;;;-142.75;100.00;77164.81;5023710;28;20629;-70
2022/06/15 05:46:58;;;;;;;;;;;;;;;-142.75;100.00;77143.16;5012273;28;20443;-71
2022/06/15 05:49:23;;;;;;;;;;;;;;;-142.75;100.00;77123.47;5011843;28;19924;-71
2022/06/15 05:51:48;;;;;;;;;;;;;;;-142.75;100.00;77105.75;5026637;28;19925;-71
2022/06/15 05:54:13;;;;;;;;;;;;;;;-142.75;100.00;77095.91;5024771;28;19917;-70
2022/06/15 05:56:38;;;;;;;;;;;;;;;-142.75;100.00;77084.09;5011178;28;20449;-70
2022/06/15 05:59:04;;;;;;;;;;;;;;;-142.75;100.00;77058.50;5031019;28;19951;-68
2022/06/15 06:01:31;;;;;;;;;;;;;;;-142.75;100.00;77046.69;5032605;28;19961;-70
2022/06/15 06:03:56;;;;;;;;;;;;;;;-142.75;100.00;77032.91;5016432;28;19917;-70
2022/06/15 06:06:21;;;;;;;;;;;;;;;-142.75;100.00;77009.28;5006417;28;19944;-70
2022/06/15 06:08:47;;;;;;;;;;;;;;;-142.75;100.00;76991.56;5000042;28;20394;-70
2022/06/15 06:11:12;;;;;;;;;;;;;;;-142.75;100.00;76971.88;5010830;28;19918;-70
2022/06/15 06:13:37;;;;;;;;;;;;;;;-142.75;100.00;76952.19;5011987;28;19956;-70
2022/06/15 06:16:03;;;;;;;;;;;;;;;-142.75;100.00;76928.56;5019126;28;19917;-71
2022/06/15 06:18:28;;;;;;;;;;;;;;;-142.75;100.00;76908.88;5031039;28;19923;-70
2022/06/15 06:20:53;;;;;;;;;;;;;;;-142.75;100.00;76904.94;5016274;28;19919;-70
2022/06/15 06:23:18;;;;;;;;;;;;;;;-142.75;100.00;76885.25;5011343;28;19941;-70
2022/06/15 06:25:44;;;;;;;;;;;;;;;-142.75;100.00;76885.25;5030869;28;20365;-69
2022/06/15 06:28:42;;;;;;;;;;;;;;;-142.75;100.00;76853.75;5012943;28;20272;-70
2022/06/15 06:31:09;;;;;;;;;;;;;;;-142.75;100.00;76845.88;4998686;28;19917;-70
2022/06/15 06:33:36;;;;;;;;;;;;;;;-142.75;100.00;76822.25;5011682;28;20011;-68
2022/06/15 06:36:03;;;;;;;;;;;;;;;-142.75;100.00;76808.50;5030873;28;20510;-70
2022/06/15 06:38:28;;;;;;;;;;;;;;;-142.75;100.00;76792.75;5029725;28;19920;-70
2022/06/15 06:40:55;;;;;;;;;;;;;;;-142.75;100.00;76775.03;5029872;28;19925;-69
2022/06/15 06:43:20;;;;;;;;;;;;;;;-142.75;100.00;76763.22;5029664;28;19924;-69
2022/06/15 06:45:45;;;;;;;;;;;;;;;-142.75;100.00;76755.34;5029868;28;19921;-71
2022/06/15 06:48:11;;;;;;;;;;;;;;;-142.75;100.00;76763.22;5029528;28;19972;-68
2022/06/15 06:50:37;;;;;;;;;;;;;;;-142.75;100.00;76729.75;5029754;28;19917;-69
2022/06/15 06:53:02;;;;;;;;;;;;;;;-142.75;100.00;76733.69;5029241;28;19929;-69
2022/06/15 06:55:28;;;;;;;;;;;;;;;-142.75;100.00;76723.84;5011509;28;19924;-68
2022/06/15 06:57:54;;;;;;;;;;;;;;;-142.75;100.00;76696.28;5026112;28;19917;-69
2022/06/15 07:00:19;;;;;;;;;;;;;;;-142.75;100.00;76688.41;5010945;28;19924;-69
2022/06/15 07:02:44;;;;;;;;;;;;;;;-142.75;100.00;76684.47;5009853;28;20004;-68
2022/06/15 07:05:10;;;;;;;;;;;;;;;-142.75;100.00;76670.69;5025100;28;19925;-69
2022/06/15 07:07:35;;;;;;;;;;;;;;;-142.75;100.00;76652.97;5029286;28;19940;-69
2022/06/15 07:10:00;;;;;;;;;;;;;;;-142.75;100.00;76637.22;5019336;28;20298;-69
2022/06/15 07:12:25;;;;;;;;;;;;;;;-142.75;100.00;76637.22;5017026;28;19925;-70
2022/06/15 07:14:51;;;;;;;;;;;;;;;-142.75;100.00;76611.63;5029385;28;19990;-70
2022/06/15 07:17:16;;;;;;;;;;;;;;;-142.75;100.00;76593.91;5029488;28;19970;-71
2022/06/15 07:19:42;;;;;;;;;;;;;;;-142.75;100.00;76582.09;5029139;28;20370;-70
2022/06/15 07:22:07;;;;;;;;;;;;;;;-142.75;100.00;76562.41;5012297;28;19921;-70
2022/06/15 07:24:32;;;;;;;;;;;;;;;-142.75;100.00;76546.66;4991774;28;19921;-69
2022/06/15 07:26:57;;;;;;;;;;;;;;;-142.75;100.00;76527.00;5009545;28;19949;-71
2022/06/15 07:29:23;;;;;;;;;;;;;;;-142.75;100.00;76519.13;4991465;28;19925;-70
2022/06/15 07:31:49;;;;;;;;;;;;;;;-142.75;100.00;76507.31;4992606;28;20363;-70
2022/06/15 07:34:15;;;;;;;;;;;;;;;-142.75;100.00;76475.81;4991495;28;20390;-69
2022/06/15 07:36:46;;;;;;;;;;;;;;;-142.75;100.00;76475.81;5009331;28;19921;-69
2022/06/15 07:39:12;;;;;;;;;;;;;;;-142.75;100.00;76467.94;4991240;28;19925;-70
2022/06/15 07:41:37;;;;;;;;;;;;;;;-142.75;100.00;76460.06;5022015;28;19964;-69
2022/06/15 07:44:02;;;;;;;;;;;;;;;-142.75;100.00;76434.47;5011305;28;20344;-70
2022/06/15 07:46:28;;;;;;;;;;;;;;;-142.75;100.00;76428.56;5028801;28;19917;-70
2022/06/15 07:51:39;;;;;;;;;;;;;;;-142.75;100.00;76385.25;5028916;28;19995;-69
2022/06/15 07:54:08;;;;;;;;;;;;;;;-142.75;100.00;76369.50;5010714;28;20566;-70
2022/06/15 07:56:34;;;;;;;;;;;;;;;-142.75;100.00;76351.81;5028530;28;19921;-69
2022/06/15 07:58:59;;;;;;;;;;;;;;;-142.75;100.00;76341.97;5028391;28;19924;-69
2022/06/15 08:01:24;;;;;;;;;;;;;;;-142.75;100.00;76341.97;5029284;28;19975;-70
2022/06/15 08:03:50;;;;;;;;;;;;;;;-142.75;100.00;76338.03;5010354;28;19933;-69
2022/06/15 08:06:15;;;;;;;;;;;;;;;-142.75;100.00;76326.22;5011414;28;19917;-70
2022/06/15 08:08:41;;;;;;;;;;;;;;;-142.75;100.00;76306.53;5029181;28;19925;-70
2022/06/15 08:11:06;;;;;;;;;;;;;;;-142.75;100.00;76302.59;5010349;28;19921;-69
2022/06/15 08:13:31;;;;;;;;;;;;;;;-142.75;100.00;76290.78;5029401;28;19968;-71
2022/06/15 08:15:57;;;;;;;;;;;;;;;-142.75;100.00;76294.72;5027183;28;20279;-71
2022/06/15 08:18:25;;;;;;;;;;;;;;;-142.75;100.00;76269.13;5010402;28;19924;-70
2022/06/15 08:20:56;;;;;;;;;;;;;;;-142.75;100.00;76247.47;5010886;28;19925;-71
2022/06/15 08:23:23;;;;;;;;;;;;;;;-142.75;100.00;76231.72;5011682;28;19964;-70
2022/06/15 08:25:50;;;;;;;;;;;;;;;-142.75;100.00;76239.59;5010640;28;19993;-70
2022/06/15 08:28:18;;;;;;;;;;;;;;;-142.75;100.00;76215.97;5010563;28;19917;-70
2022/06/15 08:30:44;;;;;;;;;;;;;;;-142.75;100.00;76212.03;5010927;28;19921;-70
2022/06/15 08:33:09;;;;;;;;;;;;;;;-142.75;100.00;76215.97;5010525;28;19921;-71
2022/06/15 08:35:38;;;;;;;;;;;;;;;-142.75;100.00;76200.25;5010868;28;20346;-70
2022/06/15 08:38:04;;;;;;;;;;;;;;;-142.75;100.00;76196.31;5010439;28;20288;-71
2022/06/15 08:40:32;;;;;;;;;;;;;;;-142.75;100.00;76164.81;5010377;28;19932;-71
2022/06/15 08:43:05;;;;;;;;;;;;;;;-142.75;100.00;76137.25;5009819;28;19918;-71
2022/06/15 08:45:36;;;;;;;;;;;;;;;-142.75;100.00;76125.44;5010478;28;20020;-71
2022/06/15 08:48:20;;;;;;;;;;;;;;;-142.75;95.11;76135.28;5016494;28;19920;-71
2022/06/15 08:51:08;;;;;;;;;;;;;;;-142.75;90.11;76109.69;5030307;28;19987;-71
2022/06/15 08:53:36;;;;;;;;;;;;;;;-142.75;95.96;76121.50;5021556;28;20383;-71
2022/06/15 08:56:07;;;;;;;;;;;;;;;-142.75;96.67;76127.41;5012325;28;19921;-69
2022/06/15 08:58:41;;;;;;;;;;;;;;;-142.75;100.00;76090.00;5030016;28;20012;-70
2022/06/15 09:01:11;;;;;;;;;;;;;;;-142.75;87.79;76068.38;5030604;28;19928;-70
2022/06/15 09:03:43;;;;;;;;;;;;;;;-142.75;87.07;76072.31;5029996;28;19923;-70
2022/06/15 09:06:34;;;;;;;;;;;;;;;-142.75;82.66;76076.22;5029961;28;20020;-70
2022/06/15 09:09:13;;;;;;;;;;;;;;;-142.75;87.76;76090.00;5011974;28;19952;-70
2022/06/15 09:12:49;;;;;;;;;;;;;;;-142.75;97.75;76050.66;5025906;28;20285;-71
2022/06/15 09:14:55;;;;;;;;;;;;;;;-142.75;82.47;76021.13;5017824;28;19924;-71
2022/06/15 09:17:22;;;;;;;;;;;;;;;-142.75;83.75;76011.28;5017836;28;19917;-70
2022/06/15 09:20:01;;;;;;;;;;;;;;;-142.75;82.35;76015.22;5016858;28;19921;-71
2022/06/15 09:22:32;;;;;;;;;;;;;;;-142.75;87.73;76003.41;5012900;28;19940;-70
2022/06/15 09:25:16;;;;;;;;;;;;;;;-142.75;80.92;76001.44;5019172;28;19943;-71
2022/06/15 09:27:46;;;;;;;;;;;;;;;-142.75;75.67;76013.25;5019541;28;20000;-68
2022/06/15 09:30:15;;;;;;;;;;;;;;;-142.75;80.58;75979.78;5021185;28;19968;-69
2022/06/15 09:32:42;;;;;;;;;;;;;;;-142.75;86.65;75981.75;5033704;28;20276;-70
2022/06/15 09:35:12;;;;;;;;;;;;;;;-142.75;81.92;75967.97;5032997;28;20546;-71
2022/06/15 09:37:40;;;;;;;;;;;;;;;-142.75;79.01;75942.41;5031638;28;20407;-71
2022/06/15 09:40:06;;;;;;;;;;;;;;;-142.75;76.31;75944.38;5031042;28;19921;-70
2022/06/15 09:42:37;;;;;;;;;;;;;;;-142.75;78.79;75912.88;5032504;28;19940;-71
2022/06/15 09:45:05;;;;;;;;;;;;;;;-142.75;75.79;75912.88;5032572;28;20560;-71
2022/06/15 09:47:33;;;;;;;;;;;;;;;-142.75;77.28;75916.81;5032214;28;20011;-71
2022/06/15 09:50:19;;;;;;;;;;;;;;;-142.75;73.58;75928.63;5025970;28;19948;-72
2022/06/15 09:52:44;;;;;;;;;;;;;;;-142.75;74.26;75885.31;5012897;28;20077;-73
2022/06/15 09:55:22;;;;;;;;;;;;;;;-142.75;76.40;75897.13;5012988;28;19953;-73
2022/06/15 09:57:50;;;;;;;;;;;;;;;-142.75;65.85;75899.09;5012278;28;21569;-71
2022/06/15 10:00:16;;;;;;;;;;;;;;;-142.75;67.22;75916.81;5013101;28;20002;-73
2022/06/15 10:02:44;;;;;;;;;;;;;;;-142.75;75.88;75934.53;5013725;28;19970;-72
2022/06/15 10:05:16;;;;;;;;;;;;;;;-142.75;68.04;75936.50;4995615;28;19980;-72
2022/06/15 10:07:43;;;;;;;;;;;;;;;-142.75;76.88;75897.13;5023523;28;19917;-72
2022/06/15 10:10:14;;;;;;;;;;;;;;;-142.75;74.64;75889.25;5014941;28;19964;-72
2022/06/15 10:12:58;;;;;;;;;;;;;;;-142.75;67.33;75910.91;5032632;28;19944;-72
2022/06/15 10:15:29;;;;;;;;;;;;;;;-142.75;65.16;75885.31;5032370;28;19963;-72
2022/06/15 10:17:56;;;;;;;;;;;;;;;-142.75;65.58;75908.94;5032881;28;20290;-71
2022/06/15 10:20:21;;;;;;;;;;;;;;;-142.75;63.24;75891.22;5032412;28;19917;-72
2022/06/15 10:22:51;;;;;;;;;;;;;;;-142.75;64.57;75910.91;5032464;28;20329;-72
2022/06/15 10:25:18;;;;;;;;;;;;;;;-142.75;67.93;75889.25;5032626;28;19940;-72
2022/06/15 10:27:43;;;;;;;;;;;;;;;-142.75;77.29;75857.78;5013817;28;19925;-69
2022/06/15 10:30:08;;;;;;;;;;;;;;;-142.75;65.15;75836.13;5032313;28;20290;-72
2022/06/15 10:32:34;;;;;;;;;;;;;;;-142.75;64.04;75842.03;5014880;28;19920;-71
2022/06/15 10:35:03;;;;;;;;;;;;;;;-142.75;62.62;75842.03;5032245;28;20379;-71
2022/06/15 10:37:31;;;;;;;;;;;;;;;-142.75;62.83;75838.09;5032223;28;19917;-72
2022/06/15 10:40:01;;;;;;;;;;;;;;;-142.75;68.94;75834.16;5014199;28;20015;-71
2022/06/15 10:42:37;;;;;;;;;;;;;;;-142.75;68.31;75834.16;5031998;28;19917;-73
2022/06/15 10:45:20;;;;;;;;;;;;;;;-142.75;66.20;75812.50;5032272;28;19975;-72
2022/06/15 10:47:51;;;;;;;;;;;;;;;-142.75;61.59;75849.91;5031928;28;19917;-72
2022/06/15 10:50:19;;;;;;;;;;;;;;;-142.75;65.06;75820.38;5014041;28;19981;-72
2022/06/15 10:52:49;;;;;;;;;;;;;;;-142.75;62.75;75822.34;5031550;28;19974;-70
2022/06/15 11:04:23;;;;;;;;;;;;;;;-142.75;65.87;75786.91;5012369;28;20433;-72
2022/06/15 11:06:50;;;;;;;;;;;;;;;-142.75;61.59;75790.84;4991609;28;20265;-72
2022/06/15 11:09:19;;;;;;;;;;;;;;;-142.75;62.92;75782.97;5011566;28;19918;-72
2022/06/15 11:11:45;;;;;;;;;;;;;;;-142.75;62.92;75759.38;5011773;28;20041;-73
2022/06/15 11:14:15;;;;;;;;;;;;;;;-142.75;61.09;75775.09;5011838;28;20008;-72
2022/06/15 11:19:27;;;;;;;;;;;;;;;-142.75;61.25;75741.66;5011351;28;19925;-72
2022/06/15 11:22:10;;;;;;;;;;;;;;;-142.75;61.50;75763.28;5011761;28;19928;-72
2022/06/15 11:24:57;;;;;;;;;;;;;;;-142.75;59.35;75747.56;5011520;28;19933;-73
2022/06/15 11:27:26;;;;;;;;;;;;;;;-142.75;58.36;75747.56;5011589;28;20374;-71
2022/06/15 11:30:04;;;;;;;;;;;;;;;-142.75;60.47;75721.97;4993661;28;19967;-72
2022/06/15 11:32:29;;;;;;;;;;;;;;;-142.75;63.20;75696.38;5011964;28;19925;-73
2022/06/15 11:34:58;;;;;;;;;;;;;;;-142.75;58.80;75725.91;5011048;28;20299;-73
2022/06/15 11:37:31;;;;;;;;;;;;;;;-142.75;60.48;75720.00;5017724;28;20330;-73
2022/06/15 11:40:07;;;;;;;;;;;;;;;-142.75;62.08;75735.75;5029780;28;19984;-71
2022/06/15 11:42:32;;;;;;;;;;;;;;;-142.75;63.64;75779.03;5030296;28;19921;-73
2022/06/15 11:44:57;;;;;;;;;;;;;;;-142.75;61.93;75834.16;5017109;28;19918;-74
2022/06/15 11:47:25;;;;;;;;;;;;;;;-142.75;64.72;75814.47;5010727;28;19952;-73
2022/06/15 11:50:10;;;;;;;;;;;;;;;-142.75;59.43;75814.47;5010373;28;19918;-72
2022/06/15 11:52:39;;;;;;;;;;;;;;;-142.75;64.75;75818.41;4992651;28;19929;-73
2022/06/15 11:55:30;;;;;;;;;;;;;;;-142.75;63.90;75796.75;5010434;28;20045;-72
2022/06/15 11:58:17;;;;;;;;;;;;;;;-142.75;70.33;75751.50;4998308;28;19975;-71
2022/06/15 12:01:01;;;;;;;;;;;;;;;-142.75;67.77;75729.84;5012489;28;19929;-73
2022/06/15 12:03:40;;;;;;;;;;;;;;;-142.75;64.23;75767.22;5030399;28;20298;-73
2022/06/15 12:06:08;;;;;;;;;;;;;;;-142.75;67.07;75723.94;5029918;28;20375;-69
2022/06/15 12:08:36;;;;;;;;;;;;;;;-142.75;69.99;75672.78;5029739;28;19924;-72
2022/06/15 12:14:21;;;;;;;;;;;;;;;-142.75;67.39;75625.53;4984724;28;19944;-73
2022/06/15 12:17:03;;;;;;;;;;;;;;;-142.75;61.16;75637.34;5010269;28;19925;-73
2022/06/15 12:19:53;;;;;;;;;;;;;;;-142.75;61.84;75639.31;5009866;28;19918;-72
2022/06/15 12:22:24;;;;;;;;;;;;;;;-142.75;57.82;75698.34;5010360;28;19925;-73
2022/06/15 12:25:09;;;;;;;;;;;;;;;-142.75;58.91;75708.19;5011910;28;19918;-71
2022/06/15 12:27:55;;;;;;;;;;;;;;;-142.75;63.92;75739.69;5005963;28;20306;-72
2022/06/15 12:30:33;;;;;;;;;;;;;;;-142.75;58.66;75733.78;4998590;28;19918;-73
2022/06/15 12:32:58;;;;;;;;;;;;;;;-142.75;59.39;75735.75;5010534;28;19922;-73
2022/06/15 12:35:39;;;;;;;;;;;;;;;-142.75;58.48;75779.03;5016251;28;19925;-73
2022/06/15 12:38:04;;;;;;;;;;;;;;;-142.75;59.94;75782.97;5029377;28;19940;-73
2022/06/15 12:40:35;;;;;;;;;;;;;;;-142.75;63.80;75779.03;5027437;28;19925;-72
2022/06/15 12:43:19;;;;;;;;;;;;;;;-142.75;64.32;75771.16;5009933;28;19918;-69
2022/06/15 12:45:50;;;;;;;;;;;;;;;-142.75;65.77;75761.34;4995089;28;20426;-72
2022/06/15 12:48:21;;;;;;;;;;;;;;;-142.75;62.68;75757.41;5009446;28;19918;-71
2022/06/15 12:50:54;;;;;;;;;;;;;;;-142.75;69.98;75710.16;5013063;28;20376;-72